logo
Search for airport 
image banner adimage banner adimage banner ad
image banner ad

04VT - Lightning Bolt Fld

Located in Cabot, United States

ICAO - 04VT, IATA -

Data provided by Airmate  

General information

Coordinates: N44°24'4" W72°15'49"
Elevation is 2156 feet MSL.
 
View others Airports in Vermont

Operational data

Special qualification required
Current time UTC:
Current local time:
Weather at : KCDA - Caledonia County ( 27 km )
METAR: KCDA 131455Z AUTO 17007KT 10SM OVC035 08/02 A2939 RMK AO2 T00820017
View NOTAMs / SUP AIP / TFR affecting this airport [VIEW]
Communications frequencies: [VIEW]

Runways:

RWY identifierQFULength (ft)Width (ft)SurfaceLDA (ft)
06130040GRASS
24130040GRASS

Airport contact information

Address: Cabot United States

Satellite view of 04VT